sensor_id;sensor_type;location;lat;lon;timestamp;P1;durP1;ratioP1;P2;durP2;ratioP2
23260;SDS011;11799;47.740;-3.390;2022-08-19T00:01:41;1.85;;;1.05;;
23260;SDS011;11799;47.740;-3.390;2022-08-19T00:04:08;1.73;;;1.05;;
23260;SDS011;11799;47.740;-3.390;2022-08-19T00:06:37;2.65;;;1.13;;
23260;SDS011;11799;47.740;-3.390;2022-08-19T00:09:05;6.85;;;1.20;;
23260;SDS011;11799;47.740;-3.390;2022-08-19T00:11:33;3.75;;;1.40;;
23260;SDS011;11799;47.740;-3.390;2022-08-19T00:14:01;1.88;;;1.10;;
23260;SDS011;11799;47.740;-3.390;2022-08-19T00:16:26;5.50;;;1.42;;
23260;SDS011;11799;47.740;-3.390;2022-08-19T00:18:55;2.80;;;1.30;;
23260;SDS011;11799;47.740;-3.390;2022-08-19T00:21:22;7.00;;;1.40;;
23260;SDS011;11799;47.740;-3.390;2022-08-19T00:23:49;6.22;;;1.70;;
23260;SDS011;11799;47.740;-3.390;2022-08-19T00:26:15;3.92;;;1.70;;
23260;SDS011;11799;47.740;-3.390;2022-08-19T00:28:41;4.95;;;1.35;;
23260;SDS011;11799;47.740;-3.390;2022-08-19T00:31:07;6.88;;;1.83;;
23260;SDS011;11799;47.740;-3.390;2022-08-19T00:33:33;5.50;;;1.65;;
23260;SDS011;11799;47.740;-3.390;2022-08-19T00:36:00;6.22;;;1.52;;
23260;SDS011;11799;47.740;-3.390;2022-08-19T00:38:26;4.70;;;1.73;;
23260;SDS011;11799;47.740;-3.390;2022-08-19T00:40:53;4.15;;;2.10;;
23260;SDS011;11799;47.740;-3.390;2022-08-19T00:43:20;5.55;;;1.50;;
23260;SDS011;11799;47.740;-3.390;2022-08-19T00:45:47;8.25;;;1.55;;
23260;SDS011;11799;47.740;-3.390;2022-08-19T00:48:13;2.63;;;1.60;;
23260;SDS011;11799;47.740;-3.390;2022-08-19T00:50:41;7.03;;;1.85;;
23260;SDS011;11799;47.740;-3.390;2022-08-19T00:53:09;10.40;;;2.30;;
23260;SDS011;11799;47.740;-3.390;2022-08-19T00:55:37;19.63;;;2.30;;
23260;SDS011;11799;47.740;-3.390;2022-08-19T00:58:08;5.25;;;1.73;;
23260;SDS011;11799;47.740;-3.390;2022-08-19T01:00:36;3.58;;;1.52;;
23260;SDS011;11799;47.740;-3.390;2022-08-19T01:03:05;5.45;;;1.55;;
23260;SDS011;11799;47.740;-3.390;2022-08-19T01:05:33;1.85;;;1.35;;
23260;SDS011;11799;47.740;-3.390;2022-08-19T01:08:00;3.05;;;1.67;;
23260;SDS011;11799;47.740;-3.390;2022-08-19T01:10:29;5.53;;;1.80;;
23260;SDS011;11799;47.740;-3.390;2022-08-19T01:12:58;5.68;;;1.95;;
23260;SDS011;11799;47.740;-3.390;2022-08-19T01:15:29;6.97;;;2.58;;
23260;SDS011;11799;47.740;-3.390;2022-08-19T01:17:58;8.85;;;2.22;;
23260;SDS011;11799;47.740;-3.390;2022-08-19T01:20:26;13.40;;;2.88;;
23260;SDS011;11799;47.740;-3.390;2022-08-19T01:22:54;5.15;;;2.00;;
23260;SDS011;11799;47.740;-3.390;2022-08-19T01:25:24;9.05;;;2.90;;
23260;SDS011;11799;47.740;-3.390;2022-08-19T01:27:53;7.93;;;2.67;;
23260;SDS011;11799;47.740;-3.390;2022-08-19T01:30:21;6.20;;;2.40;;
23260;SDS011;11799;47.740;-3.390;2022-08-19T01:32:49;7.68;;;2.55;;
23260;SDS011;11799;47.740;-3.390;2022-08-19T01:35:16;10.95;;;2.70;;
23260;SDS011;11799;47.740;-3.390;2022-08-19T01:37:44;11.60;;;2.92;;
23260;SDS011;11799;47.740;-3.390;2022-08-19T01:40:11;14.05;;;2.10;;
23260;SDS011;11799;47.740;-3.390;2022-08-19T01:42:37;6.70;;;2.35;;
23260;SDS011;11799;47.740;-3.390;2022-08-19T01:45:04;16.63;;;2.63;;
23260;SDS011;11799;47.740;-3.390;2022-08-19T01:47:33;8.70;;;2.80;;
23260;SDS011;11799;47.740;-3.390;2022-08-19T01:50:01;10.68;;;2.70;;
23260;SDS011;11799;47.740;-3.390;2022-08-19T01:52:27;5.97;;;2.67;;
23260;SDS011;11799;47.740;-3.390;2022-08-19T01:54:52;8.02;;;2.35;;
23260;SDS011;11799;47.740;-3.390;2022-08-19T01:57:18;9.38;;;2.83;;
23260;SDS011;11799;47.740;-3.390;2022-08-19T01:59:44;18.00;;;3.22;;
23260;SDS011;11799;47.740;-3.390;2022-08-19T02:02:10;8.82;;;2.50;;
23260;SDS011;11799;47.740;-3.390;2022-08-19T02:04:36;13.75;;;3.17;;
23260;SDS011;11799;47.740;-3.390;2022-08-19T02:07:06;13.45;;;3.10;;
23260;SDS011;11799;47.740;-3.390;2022-08-19T02:09:33;9.18;;;2.63;;
23260;SDS011;11799;47.740;-3.390;2022-08-19T02:11:59;12.85;;;2.50;;
23260;SDS011;11799;47.740;-3.390;2022-08-19T02:14:24;8.32;;;2.90;;
23260;SDS011;11799;47.740;-3.390;2022-08-19T02:16:50;13.35;;;2.40;;
23260;SDS011;11799;47.740;-3.390;2022-08-19T02:19:15;10.32;;;2.60;;
23260;SDS011;11799;47.740;-3.390;2022-08-19T02:21:41;14.15;;;2.72;;
23260;SDS011;11799;47.740;-3.390;2022-08-19T02:24:08;10.88;;;3.13;;
23260;SDS011;11799;47.740;-3.390;2022-08-19T02:26:34;9.23;;;3.00;;
23260;SDS011;11799;47.740;-3.390;2022-08-19T02:29:00;11.50;;;2.65;;
23260;SDS011;11799;47.740;-3.390;2022-08-19T02:31:26;17.40;;;3.03;;
23260;SDS011;11799;47.740;-3.390;2022-08-19T02:33:53;9.55;;;2.72;;
23260;SDS011;11799;47.740;-3.390;2022-08-19T02:36:20;15.07;;;3.03;;
23260;SDS011;11799;47.740;-3.390;2022-08-19T02:38:46;13.80;;;2.63;;
23260;SDS011;11799;47.740;-3.390;2022-08-19T02:41:13;6.03;;;2.13;;
23260;SDS011;11799;47.740;-3.390;2022-08-19T02:43:41;16.63;;;3.40;;
23260;SDS011;11799;47.740;-3.390;2022-08-19T02:46:14;12.50;;;2.97;;
23260;SDS011;11799;47.740;-3.390;2022-08-19T02:48:49;10.85;;;2.35;;
23260;SDS011;11799;47.740;-3.390;2022-08-19T02:51:24;10.40;;;2.72;;
23260;SDS011;11799;47.740;-3.390;2022-08-19T02:53:52;9.40;;;2.40;;
23260;SDS011;11799;47.740;-3.390;2022-08-19T02:56:18;10.43;;;2.92;;
23260;SDS011;11799;47.740;-3.390;2022-08-19T02:58:44;16.70;;;2.47;;
23260;SDS011;11799;47.740;-3.390;2022-08-19T03:01:11;12.52;;;2.58;;
23260;SDS011;11799;47.740;-3.390;2022-08-19T03:03:45;7.88;;;2.40;;
23260;SDS011;11799;47.740;-3.390;2022-08-19T03:06:12;13.27;;;2.45;;
23260;SDS011;11799;47.740;-3.390;2022-08-19T03:08:41;19.27;;;2.60;;
23260;SDS011;11799;47.740;-3.390;2022-08-19T03:11:16;10.43;;;2.15;;
23260;SDS011;11799;47.740;-3.390;2022-08-19T03:13:47;6.55;;;2.45;;
23260;SDS011;11799;47.740;-3.390;2022-08-19T03:16:16;6.93;;;2.50;;
23260;SDS011;11799;47.740;-3.390;2022-08-19T03:18:43;14.02;;;2.63;;
23260;SDS011;11799;47.740;-3.390;2022-08-19T03:21:09;16.27;;;2.53;;
23260;SDS011;11799;47.740;-3.390;2022-08-19T03:23:41;9.18;;;2.72;;
23260;SDS011;11799;47.740;-3.390;2022-08-19T03:26:06;9.30;;;2.78;;
23260;SDS011;11799;47.740;-3.390;2022-08-19T03:28:32;14.30;;;2.90;;
23260;SDS011;11799;47.740;-3.390;2022-08-19T03:31:06;10.40;;;3.05;;
23260;SDS011;11799;47.740;-3.390;2022-08-19T03:33:34;6.35;;;2.55;;
23260;SDS011;11799;47.740;-3.390;2022-08-19T03:36:13;15.48;;;2.72;;
23260;SDS011;11799;47.740;-3.390;2022-08-19T03:38:43;7.28;;;2.42;;
23260;SDS011;11799;47.740;-3.390;2022-08-19T03:41:15;11.75;;;3.13;;
23260;SDS011;11799;47.740;-3.390;2022-08-19T03:43:43;14.00;;;3.20;;
23260;SDS011;11799;47.740;-3.390;2022-08-19T03:48:47;11.98;;;2.97;;
23260;SDS011;11799;47.740;-3.390;2022-08-19T03:51:24;16.48;;;2.80;;
23260;SDS011;11799;47.740;-3.390;2022-08-19T03:53:52;13.15;;;2.83;;
23260;SDS011;11799;47.740;-3.390;2022-08-19T03:56:19;14.23;;;2.67;;
23260;SDS011;11799;47.740;-3.390;2022-08-19T03:58:45;18.73;;;3.13;;
23260;SDS011;11799;47.740;-3.390;2022-08-19T04:01:13;9.43;;;2.38;;
23260;SDS011;11799;47.740;-3.390;2022-08-19T04:03:41;11.02;;;3.20;;
23260;SDS011;11799;47.740;-3.390;2022-08-19T04:06:13;17.02;;;2.40;;
23260;SDS011;11799;47.740;-3.390;2022-08-19T04:08:41;14.70;;;2.80;;
23260;SDS011;11799;47.740;-3.390;2022-08-19T04:11:09;7.15;;;2.53;;
23260;SDS011;11799;47.740;-3.390;2022-08-19T04:13:37;7.43;;;2.83;;
23260;SDS011;11799;47.740;-3.390;2022-08-19T04:16:03;13.20;;;2.97;;
23260;SDS011;11799;47.740;-3.390;2022-08-19T04:18:30;17.45;;;3.28;;
23260;SDS011;11799;47.740;-3.390;2022-08-19T04:20:56;14.85;;;2.47;;
23260;SDS011;11799;47.740;-3.390;2022-08-19T04:23:22;11.00;;;2.50;;
23260;SDS011;11799;47.740;-3.390;2022-08-19T04:25:48;11.70;;;2.88;;
23260;SDS011;11799;47.740;-3.390;2022-08-19T04:28:13;21.42;;;3.10;;
23260;SDS011;11799;47.740;-3.390;2022-08-19T04:30:40;14.68;;;2.95;;
23260;SDS011;11799;47.740;-3.390;2022-08-19T04:33:10;11.07;;;2.90;;
23260;SDS011;11799;47.740;-3.390;2022-08-19T04:35:41;14.15;;;3.08;;
23260;SDS011;11799;47.740;-3.390;2022-08-19T04:38:10;12.80;;;2.67;;
23260;SDS011;11799;47.740;-3.390;2022-08-19T04:40:46;15.23;;;3.17;;
23260;SDS011;11799;47.740;-3.390;2022-08-19T04:43:32;20.42;;;2.65;;
23260;SDS011;11799;47.740;-3.390;2022-08-19T04:46:06;12.15;;;2.80;;
23260;SDS011;11799;47.740;-3.390;2022-08-19T04:48:33;14.40;;;2.72;;
23260;SDS011;11799;47.740;-3.390;2022-08-19T04:50:59;9.80;;;2.28;;
23260;SDS011;11799;47.740;-3.390;2022-08-19T04:53:25;11.00;;;2.40;;
23260;SDS011;11799;47.740;-3.390;2022-08-19T04:55:54;11.75;;;2.38;;
23260;SDS011;11799;47.740;-3.390;2022-08-19T04:58:21;5.78;;;1.67;;
23260;SDS011;11799;47.740;-3.390;2022-08-19T05:00:48;11.70;;;2.83;;
23260;SDS011;11799;47.740;-3.390;2022-08-19T05:03:14;7.32;;;2.00;;
23260;SDS011;11799;47.740;-3.390;2022-08-19T05:05:43;15.70;;;2.63;;
23260;SDS011;11799;47.740;-3.390;2022-08-19T05:08:09;14.38;;;2.47;;
23260;SDS011;11799;47.740;-3.390;2022-08-19T05:10:37;15.27;;;2.72;;
23260;SDS011;11799;47.740;-3.390;2022-08-19T05:13:04;5.72;;;1.90;;
23260;SDS011;11799;47.740;-3.390;2022-08-19T05:15:30;7.55;;;2.47;;
23260;SDS011;11799;47.740;-3.390;2022-08-19T05:17:56;15.38;;;2.75;;
23260;SDS011;11799;47.740;-3.390;2022-08-19T05:20:40;8.15;;;1.80;;
23260;SDS011;11799;47.740;-3.390;2022-08-19T05:23:25;6.10;;;2.17;;
23260;SDS011;11799;47.740;-3.390;2022-08-19T05:25:51;14.52;;;2.50;;
23260;SDS011;11799;47.740;-3.390;2022-08-19T05:28:17;10.13;;;2.33;;
23260;SDS011;11799;47.740;-3.390;2022-08-19T05:30:44;7.75;;;1.98;;
23260;SDS011;11799;47.740;-3.390;2022-08-19T05:33:10;9.73;;;2.40;;
23260;SDS011;11799;47.740;-3.390;2022-08-19T05:35:37;16.05;;;3.08;;
23260;SDS011;11799;47.740;-3.390;2022-08-19T05:38:04;19.65;;;3.00;;
23260;SDS011;11799;47.740;-3.390;2022-08-19T05:40:35;17.20;;;2.65;;
23260;SDS011;11799;47.740;-3.390;2022-08-19T05:43:02;11.43;;;2.03;;
23260;SDS011;11799;47.740;-3.390;2022-08-19T05:45:29;8.88;;;2.42;;
23260;SDS011;11799;47.740;-3.390;2022-08-19T05:47:55;14.45;;;2.58;;
23260;SDS011;11799;47.740;-3.390;2022-08-19T05:50:20;12.25;;;2.95;;
23260;SDS011;11799;47.740;-3.390;2022-08-19T05:52:46;8.95;;;2.42;;
23260;SDS011;11799;47.740;-3.390;2022-08-19T05:55:12;10.73;;;2.85;;
23260;SDS011;11799;47.740;-3.390;2022-08-19T05:57:38;18.98;;;2.97;;
23260;SDS011;11799;47.740;-3.390;2022-08-19T06:00:04;8.45;;;2.13;;
23260;SDS011;11799;47.740;-3.390;2022-08-19T06:02:37;9.40;;;2.30;;
23260;SDS011;11799;47.740;-3.390;2022-08-19T06:05:03;7.22;;;2.22;;
23260;SDS011;11799;47.740;-3.390;2022-08-19T06:07:31;6.10;;;2.35;;
23260;SDS011;11799;47.740;-3.390;2022-08-19T06:09:57;8.25;;;2.30;;
23260;SDS011;11799;47.740;-3.390;2022-08-19T06:12:22;9.88;;;2.17;;
23260;SDS011;11799;47.740;-3.390;2022-08-19T06:14:54;14.38;;;2.40;;
23260;SDS011;11799;47.740;-3.390;2022-08-19T06:17:20;10.80;;;2.72;;
23260;SDS011;11799;47.740;-3.390;2022-08-19T06:22:15;5.80;;;2.03;;
23260;SDS011;11799;47.740;-3.390;2022-08-19T06:24:41;9.15;;;2.30;;
23260;SDS011;11799;47.740;-3.390;2022-08-19T06:27:07;11.20;;;2.03;;
23260;SDS011;11799;47.740;-3.390;2022-08-19T06:29:33;7.03;;;1.98;;
23260;SDS011;11799;47.740;-3.390;2022-08-19T06:32:01;12.38;;;2.97;;
23260;SDS011;11799;47.740;-3.390;2022-08-19T06:34:28;10.20;;;2.40;;
23260;SDS011;11799;47.740;-3.390;2022-08-19T06:36:56;12.30;;;2.42;;
23260;SDS011;11799;47.740;-3.390;2022-08-19T06:39:27;13.63;;;2.55;;
23260;SDS011;11799;47.740;-3.390;2022-08-19T06:41:59;14.20;;;2.15;;
23260;SDS011;11799;47.740;-3.390;2022-08-19T06:44:28;7.38;;;1.77;;
23260;SDS011;11799;47.740;-3.390;2022-08-19T06:47:02;7.43;;;1.67;;
23260;SDS011;11799;47.740;-3.390;2022-08-19T06:49:29;18.08;;;2.22;;
23260;SDS011;11799;47.740;-3.390;2022-08-19T06:51:58;9.23;;;2.40;;
23260;SDS011;11799;47.740;-3.390;2022-08-19T06:54:25;15.15;;;2.47;;
23260;SDS011;11799;47.740;-3.390;2022-08-19T06:56:52;13.20;;;2.10;;
23260;SDS011;11799;47.740;-3.390;2022-08-19T06:59:18;4.15;;;2.17;;
23260;SDS011;11799;47.740;-3.390;2022-08-19T07:01:47;11.88;;;2.05;;
23260;SDS011;11799;47.740;-3.390;2022-08-19T07:04:15;5.20;;;2.00;;
23260;SDS011;11799;47.740;-3.390;2022-08-19T07:06:44;13.27;;;2.50;;
23260;SDS011;11799;47.740;-3.390;2022-08-19T07:09:11;9.82;;;2.85;;
23260;SDS011;11799;47.740;-3.390;2022-08-19T07:11:39;5.88;;;2.00;;
23260;SDS011;11799;47.740;-3.390;2022-08-19T07:14:10;6.97;;;2.00;;
23260;SDS011;11799;47.740;-3.390;2022-08-19T07:16:35;9.07;;;1.92;;
23260;SDS011;11799;47.740;-3.390;2022-08-19T07:19:01;8.23;;;2.58;;
23260;SDS011;11799;47.740;-3.390;2022-08-19T07:21:27;6.00;;;2.00;;
23260;SDS011;11799;47.740;-3.390;2022-08-19T07:23:53;8.38;;;2.28;;
23260;SDS011;11799;47.740;-3.390;2022-08-19T07:26:22;9.93;;;2.42;;
23260;SDS011;11799;47.740;-3.390;2022-08-19T07:28:50;15.73;;;2.60;;
23260;SDS011;11799;47.740;-3.390;2022-08-19T07:31:17;9.80;;;2.70;;
23260;SDS011;11799;47.740;-3.390;2022-08-19T07:33:45;12.43;;;2.70;;
23260;SDS011;11799;47.740;-3.390;2022-08-19T07:36:12;5.18;;;2.25;;
23260;SDS011;11799;47.740;-3.390;2022-08-19T07:38:40;15.55;;;3.22;;
23260;SDS011;11799;47.740;-3.390;2022-08-19T07:41:09;18.88;;;3.40;;
23260;SDS011;11799;47.740;-3.390;2022-08-19T07:43:36;13.77;;;2.42;;
23260;SDS011;11799;47.740;-3.390;2022-08-19T07:46:01;13.55;;;2.78;;
23260;SDS011;11799;47.740;-3.390;2022-08-19T07:48:28;9.20;;;2.60;;
23260;SDS011;11799;47.740;-3.390;2022-08-19T07:50:59;10.50;;;2.40;;
23260;SDS011;11799;47.740;-3.390;2022-08-19T07:53:29;17.25;;;2.92;;
23260;SDS011;11799;47.740;-3.390;2022-08-19T07:55:55;12.70;;;2.70;;
23260;SDS011;11799;47.740;-3.390;2022-08-19T07:58:25;11.73;;;2.37;;
23260;SDS011;11799;47.740;-3.390;2022-08-19T08:00:51;15.57;;;2.70;;
23260;SDS011;11799;47.740;-3.390;2022-08-19T08:03:18;19.75;;;2.60;;
23260;SDS011;11799;47.740;-3.390;2022-08-19T08:06:06;11.95;;;2.47;;
23260;SDS011;11799;47.740;-3.390;2022-08-19T08:08:50;11.80;;;2.67;;
23260;SDS011;11799;47.740;-3.390;2022-08-19T08:11:34;17.38;;;3.10;;
23260;SDS011;11799;47.740;-3.390;2022-08-19T08:14:00;20.13;;;3.75;;
23260;SDS011;11799;47.740;-3.390;2022-08-19T08:16:27;19.30;;;3.42;;
23260;SDS011;11799;47.740;-3.390;2022-08-19T08:18:56;17.25;;;3.05;;
23260;SDS011;11799;47.740;-3.390;2022-08-19T08:21:22;22.92;;;3.05;;
23260;SDS011;11799;47.740;-3.390;2022-08-19T08:23:48;15.52;;;2.83;;
23260;SDS011;11799;47.740;-3.390;2022-08-19T08:26:13;15.73;;;2.65;;
23260;SDS011;11799;47.740;-3.390;2022-08-19T08:28:40;9.70;;;2.90;;
23260;SDS011;11799;47.740;-3.390;2022-08-19T08:31:05;12.88;;;3.08;;
23260;SDS011;11799;47.740;-3.390;2022-08-19T08:33:31;7.10;;;2.95;;
23260;SDS011;11799;47.740;-3.390;2022-08-19T08:35:57;8.10;;;3.13;;
23260;SDS011;11799;47.740;-3.390;2022-08-19T08:38:22;18.52;;;2.67;;
23260;SDS011;11799;47.740;-3.390;2022-08-19T08:40:49;15.02;;;2.85;;
23260;SDS011;11799;47.740;-3.390;2022-08-19T08:45:53;9.55;;;2.55;;
23260;SDS011;11799;47.740;-3.390;2022-08-19T08:51:12;12.98;;;2.28;;
23260;SDS011;11799;47.740;-3.390;2022-08-19T08:53:44;7.28;;;1.95;;
23260;SDS011;11799;47.740;-3.390;2022-08-19T08:56:14;15.05;;;2.17;;
23260;SDS011;11799;47.740;-3.390;2022-08-19T09:01:24;9.27;;;2.17;;
23260;SDS011;11799;47.740;-3.390;2022-08-19T09:03:50;9.45;;;2.28;;
23260;SDS011;11799;47.740;-3.390;2022-08-19T09:06:51;15.30;;;2.20;;
23260;SDS011;11799;47.740;-3.390;2022-08-19T09:17:20;9.70;;;1.95;;
23260;SDS011;11799;47.740;-3.390;2022-08-19T09:19:53;11.57;;;2.28;;
23260;SDS011;11799;47.740;-3.390;2022-08-19T09:22:29;9.25;;;2.50;;
23260;SDS011;11799;47.740;-3.390;2022-08-19T09:24:55;14.48;;;2.10;;
23260;SDS011;11799;47.740;-3.390;2022-08-19T09:27:22;14.55;;;2.22;;
23260;SDS011;11799;47.740;-3.390;2022-08-19T09:32:18;19.73;;;2.72;;
23260;SDS011;11799;47.740;-3.390;2022-08-19T09:34:45;17.42;;;2.50;;
23260;SDS011;11799;47.740;-3.390;2022-08-19T09:37:10;8.90;;;1.70;;
23260;SDS011;11799;47.740;-3.390;2022-08-19T09:39:37;6.88;;;1.90;;
23260;SDS011;11799;47.740;-3.390;2022-08-19T09:42:03;6.47;;;1.85;;
23260;SDS011;11799;47.740;-3.390;2022-08-19T09:44:30;12.27;;;2.55;;
23260;SDS011;11799;47.740;-3.390;2022-08-19T09:46:55;24.10;;;3.35;;
23260;SDS011;11799;47.740;-3.390;2022-08-19T09:49:21;16.38;;;2.92;;
23260;SDS011;11799;47.740;-3.390;2022-08-19T09:51:50;15.88;;;2.22;;
23260;SDS011;11799;47.740;-3.390;2022-08-19T09:54:21;8.95;;;2.20;;
23260;SDS011;11799;47.740;-3.390;2022-08-19T09:56:46;12.27;;;1.90;;
23260;SDS011;11799;47.740;-3.390;2022-08-19T09:59:12;14.63;;;2.10;;
23260;SDS011;11799;47.740;-3.390;2022-08-19T10:01:38;3.00;;;1.83;;
23260;SDS011;11799;47.740;-3.390;2022-08-19T10:04:04;8.63;;;1.35;;
23260;SDS011;11799;47.740;-3.390;2022-08-19T10:06:33;14.70;;;1.92;;
23260;SDS011;11799;47.740;-3.390;2022-08-19T10:09:01;9.15;;;1.70;;
23260;SDS011;11799;47.740;-3.390;2022-08-19T10:11:30;5.18;;;1.88;;
23260;SDS011;11799;47.740;-3.390;2022-08-19T10:13:56;10.00;;;1.63;;
23260;SDS011;11799;47.740;-3.390;2022-08-19T10:16:22;6.90;;;1.65;;
23260;SDS011;11799;47.740;-3.390;2022-08-19T10:18:48;7.05;;;1.77;;
23260;SDS011;11799;47.740;-3.390;2022-08-19T10:21:16;9.32;;;1.90;;
23260;SDS011;11799;47.740;-3.390;2022-08-19T10:23:45;5.55;;;1.67;;
23260;SDS011;11799;47.740;-3.390;2022-08-19T10:26:14;9.40;;;1.83;;
23260;SDS011;11799;47.740;-3.390;2022-08-19T10:28:42;9.82;;;2.20;;
23260;SDS011;11799;47.740;-3.390;2022-08-19T10:31:09;11.18;;;1.95;;
23260;SDS011;11799;47.740;-3.390;2022-08-19T10:33:37;10.38;;;1.80;;
23260;SDS011;11799;47.740;-3.390;2022-08-19T10:36:06;7.72;;;1.58;;
23260;SDS011;11799;47.740;-3.390;2022-08-19T10:38:35;7.88;;;1.75;;
23260;SDS011;11799;47.740;-3.390;2022-08-19T10:41:08;7.35;;;1.58;;
23260;SDS011;11799;47.740;-3.390;2022-08-19T10:43:40;6.68;;;2.10;;
23260;SDS011;11799;47.740;-3.390;2022-08-19T10:46:07;9.75;;;1.98;;
23260;SDS011;11799;47.740;-3.390;2022-08-19T10:48:35;17.92;;;1.90;;
23260;SDS011;11799;47.740;-3.390;2022-08-19T10:51:01;8.25;;;1.92;;
23260;SDS011;11799;47.740;-3.390;2022-08-19T10:53:46;7.13;;;1.55;;
23260;SDS011;11799;47.740;-3.390;2022-08-19T10:56:12;14.98;;;2.78;;
23260;SDS011;11799;47.740;-3.390;2022-08-19T10:58:56;18.48;;;2.17;;
23260;SDS011;11799;47.740;-3.390;2022-08-19T11:01:23;6.65;;;1.70;;
23260;SDS011;11799;47.740;-3.390;2022-08-19T11:03:49;14.45;;;2.08;;
23260;SDS011;11799;47.740;-3.390;2022-08-19T11:06:15;9.27;;;1.70;;
23260;SDS011;11799;47.740;-3.390;2022-08-19T11:08:40;10.77;;;1.90;;
23260;SDS011;11799;47.740;-3.390;2022-08-19T11:11:07;14.07;;;2.20;;
23260;SDS011;11799;47.740;-3.390;2022-08-19T11:13:35;9.50;;;2.10;;
23260;SDS011;11799;47.740;-3.390;2022-08-19T11:16:10;12.63;;;2.13;;
23260;SDS011;11799;47.740;-3.390;2022-08-19T11:18:39;13.05;;;2.30;;
23260;SDS011;11799;47.740;-3.390;2022-08-19T11:21:08;9.82;;;2.00;;
23260;SDS011;11799;47.740;-3.390;2022-08-19T11:23:36;12.20;;;2.13;;
23260;SDS011;11799;47.740;-3.390;2022-08-19T11:26:01;8.32;;;1.90;;
23260;SDS011;11799;47.740;-3.390;2022-08-19T11:28:27;8.20;;;1.73;;
23260;SDS011;11799;47.740;-3.390;2022-08-19T11:30:53;12.85;;;2.20;;
23260;SDS011;11799;47.740;-3.390;2022-08-19T11:33:19;7.45;;;1.65;;
23260;SDS011;11799;47.740;-3.390;2022-08-19T11:35:44;7.90;;;1.80;;
23260;SDS011;11799;47.740;-3.390;2022-08-19T11:38:10;14.43;;;2.20;;
23260;SDS011;11799;47.740;-3.390;2022-08-19T11:40:36;4.05;;;1.60;;
23260;SDS011;11799;47.740;-3.390;2022-08-19T11:43:02;7.00;;;1.58;;
23260;SDS011;11799;47.740;-3.390;2022-08-19T11:45:29;14.40;;;2.22;;
23260;SDS011;11799;47.740;-3.390;2022-08-19T11:47:55;9.25;;;1.80;;
23260;SDS011;11799;47.740;-3.390;2022-08-19T11:50:21;9.52;;;1.88;;
23260;SDS011;11799;47.740;-3.390;2022-08-19T11:52:48;7.20;;;1.63;;
23260;SDS011;11799;47.740;-3.390;2022-08-19T11:55:14;15.45;;;2.30;;
23260;SDS011;11799;47.740;-3.390;2022-08-19T11:57:40;12.30;;;1.73;;
23260;SDS011;11799;47.740;-3.390;2022-08-19T12:00:06;8.35;;;1.80;;
23260;SDS011;11799;47.740;-3.390;2022-08-19T12:02:33;11.50;;;2.10;;
23260;SDS011;11799;47.740;-3.390;2022-08-19T12:04:59;15.52;;;2.03;;
23260;SDS011;11799;47.740;-3.390;2022-08-19T12:07:28;10.95;;;1.45;;
23260;SDS011;11799;47.740;-3.390;2022-08-19T12:09:56;8.95;;;2.00;;
23260;SDS011;11799;47.740;-3.390;2022-08-19T12:12:22;7.35;;;1.50;;
23260;SDS011;11799;47.740;-3.390;2022-08-19T12:14:48;5.32;;;1.55;;
23260;SDS011;11799;47.740;-3.390;2022-08-19T12:17:15;7.18;;;1.52;;
23260;SDS011;11799;47.740;-3.390;2022-08-19T12:19:41;2.83;;;0.90;;
23260;SDS011;11799;47.740;-3.390;2022-08-19T12:22:06;1.88;;;0.80;;
23260;SDS011;11799;47.740;-3.390;2022-08-19T12:24:32;0.30;;;0.30;;
23260;SDS011;11799;47.740;-3.390;2022-08-19T12:26:59;0.95;;;0.75;;
23260;SDS011;11799;47.740;-3.390;2022-08-19T12:29:27;0.15;;;0.15;;
23260;SDS011;11799;47.740;-3.390;2022-08-19T12:31:55;0.15;;;0.15;;
23260;SDS011;11799;47.740;-3.390;2022-08-19T12:34:27;0.20;;;0.20;;
23260;SDS011;11799;47.740;-3.390;2022-08-19T12:36:57;0.30;;;0.30;;
23260;SDS011;11799;47.740;-3.390;2022-08-19T12:39:24;0.28;;;0.28;;
23260;SDS011;11799;47.740;-3.390;2022-08-19T12:41:50;0.20;;;0.20;;
23260;SDS011;11799;47.740;-3.390;2022-08-19T12:44:16;0.20;;;0.20;;
23260;SDS011;11799;47.740;-3.390;2022-08-19T12:46:42;0.30;;;0.30;;
23260;SDS011;11799;47.740;-3.390;2022-08-19T12:49:07;0.20;;;0.20;;
23260;SDS011;11799;47.740;-3.390;2022-08-19T12:51:33;0.30;;;0.30;;
23260;SDS011;11799;47.740;-3.390;2022-08-19T12:53:59;0.40;;;0.40;;
23260;SDS011;11799;47.740;-3.390;2022-08-19T12:56:24;0.20;;;0.20;;
23260;SDS011;11799;47.740;-3.390;2022-08-19T12:58:50;0.20;;;0.20;;
23260;SDS011;11799;47.740;-3.390;2022-08-19T13:01:16;0.20;;;0.20;;
23260;SDS011;11799;47.740;-3.390;2022-08-19T13:03:44;0.20;;;0.20;;
23260;SDS011;11799;47.740;-3.390;2022-08-19T13:06:11;0.17;;;0.17;;
23260;SDS011;11799;47.740;-3.390;2022-08-19T13:08:37;0.20;;;0.20;;
23260;SDS011;11799;47.740;-3.390;2022-08-19T13:11:22;0.28;;;0.28;;
23260;SDS011;11799;47.740;-3.390;2022-08-19T13:13:51;0.30;;;0.30;;
23260;SDS011;11799;47.740;-3.390;2022-08-19T13:16:18;0.32;;;0.32;;
23260;SDS011;11799;47.740;-3.390;2022-08-19T13:18:45;0.20;;;0.20;;
23260;SDS011;11799;47.740;-3.390;2022-08-19T13:21:17;0.20;;;0.20;;
23260;SDS011;11799;47.740;-3.390;2022-08-19T13:23:45;0.20;;;0.20;;
23260;SDS011;11799;47.740;-3.390;2022-08-19T13:26:11;0.20;;;0.20;;
23260;SDS011;11799;47.740;-3.390;2022-08-19T13:28:38;0.28;;;0.28;;
23260;SDS011;11799;47.740;-3.390;2022-08-19T13:31:24;0.20;;;0.20;;
23260;SDS011;11799;47.740;-3.390;2022-08-19T13:34:10;0.20;;;0.20;;
23260;SDS011;11799;47.740;-3.390;2022-08-19T13:36:36;0.13;;;0.13;;
23260;SDS011;11799;47.740;-3.390;2022-08-19T13:39:02;0.30;;;0.30;;
23260;SDS011;11799;47.740;-3.390;2022-08-19T13:41:29;0.20;;;0.20;;
23260;SDS011;11799;47.740;-3.390;2022-08-19T13:43:55;0.20;;;0.20;;
23260;SDS011;11799;47.740;-3.390;2022-08-19T13:46:21;0.15;;;0.15;;
23260;SDS011;11799;47.740;-3.390;2022-08-19T13:48:47;0.20;;;0.20;;
23260;SDS011;11799;47.740;-3.390;2022-08-19T13:51:14;0.20;;;0.20;;
23260;SDS011;11799;47.740;-3.390;2022-08-19T13:53:42;0.20;;;0.20;;
23260;SDS011;11799;47.740;-3.390;2022-08-19T13:56:09;0.15;;;0.15;;
23260;SDS011;11799;47.740;-3.390;2022-08-19T13:58:38;0.10;;;0.10;;
23260;SDS011;11799;47.740;-3.390;2022-08-19T14:01:04;0.10;;;0.10;;
23260;SDS011;11799;47.740;-3.390;2022-08-19T14:03:31;0.10;;;0.10;;
23260;SDS011;11799;47.740;-3.390;2022-08-19T14:05:58;0.17;;;0.17;;
23260;SDS011;11799;47.740;-3.390;2022-08-19T14:08:24;0.20;;;0.20;;
23260;SDS011;11799;47.740;-3.390;2022-08-19T14:10:50;0.10;;;0.10;;
23260;SDS011;11799;47.740;-3.390;2022-08-19T14:13:17;0.10;;;0.10;;
23260;SDS011;11799;47.740;-3.390;2022-08-19T14:15:46;0.17;;;0.17;;
23260;SDS011;11799;47.740;-3.390;2022-08-19T14:18:12;0.10;;;0.10;;
23260;SDS011;11799;47.740;-3.390;2022-08-19T14:20:39;0.10;;;0.10;;
23260;SDS011;11799;47.740;-3.390;2022-08-19T14:23:05;0.10;;;0.10;;
23260;SDS011;11799;47.740;-3.390;2022-08-19T14:25:31;0.10;;;0.10;;
23260;SDS011;11799;47.740;-3.390;2022-08-19T14:27:57;0.17;;;0.17;;
23260;SDS011;11799;47.740;-3.390;2022-08-19T14:30:28;0.20;;;0.20;;
23260;SDS011;11799;47.740;-3.390;2022-08-19T14:32:56;0.10;;;0.10;;
23260;SDS011;11799;47.740;-3.390;2022-08-19T14:35:23;0.20;;;0.20;;
23260;SDS011;11799;47.740;-3.390;2022-08-19T14:37:50;0.10;;;0.10;;
23260;SDS011;11799;47.740;-3.390;2022-08-19T14:40:20;0.10;;;0.10;;
23260;SDS011;11799;47.740;-3.390;2022-08-19T14:42:51;0.10;;;0.10;;
23260;SDS011;11799;47.740;-3.390;2022-08-19T14:45:20;0.13;;;0.13;;
23260;SDS011;11799;47.740;-3.390;2022-08-19T14:47:46;0.10;;;0.10;;
23260;SDS011;11799;47.740;-3.390;2022-08-19T14:50:12;0.28;;;0.28;;
23260;SDS011;11799;47.740;-3.390;2022-08-19T14:52:38;0.20;;;0.20;;
23260;SDS011;11799;47.740;-3.390;2022-08-19T14:55:05;0.10;;;0.10;;
23260;SDS011;11799;47.740;-3.390;2022-08-19T14:57:31;0.10;;;0.10;;